Terminal Aerodrome Forecast
Issued by NWS Denver/Boulder, CO

Home | Current Version | Previous Version | Text Only | Print | Product List | Glossary On
Versions: 1 2 3 4 5 6 7 8 9 10 11 12 13 14 15 16 17 18 19 20 21 22 23 24 25 26 27 28 29 30 31 32 33 34 35 36 37 38 39 40 41 42 43 44 45 46 47 48 49 50
000
FTUS45 KBOU 260632 AAA
TAFDEN
TAF AMD
KDEN 260632Z 2607/2712 02010KT P6SM VCSH BKN020 BKN070
      TEMPO 2607/2608 SCT020 BKN070
     FM260800 35008KT P6SM SCT020 SCT070
     FM261000 30006KT P6SM FEW070 SCT200
     FM261200 21006KT P6SM SCT220
     FM261500 24006KT P6SM SCT220
     FM261700 31006KT P6SM SCT220
     FM262100 33010KT P6SM SCT100 BKN200
     FM270300 17006KT P6SM BKN100 BKN150
     FM271100 22008KT P6SM BKN080 BKN120=

USA.gov is the U.S. government's official web portal to all federal, state and local government web resources and services.